Time;durP1;ratioP1;P1;durP2;ratioP2;P2;SDS_P1;SDS_P2;PMS_P1;PMS_P2;Temp;Humidity;BMP_temperature;BMP_pressure;BME280_temperature;BME280_humidity;BME280_pressure;Samples;Min_cycle;Max_cycle;Signal;HPM_P1;HPM_P2
2021/03/17 00:01:03;;;;;;;14.43;6.78;;;4.00;99.90;;;;;;5052411;28;20189;-81
2021/03/17 00:03:30;;;;;;;8.30;7.20;;;4.00;99.90;;;;;;5040370;28;20194;-83
2021/03/17 00:05:56;;;;;;;9.73;7.60;;;4.00;99.90;;;;;;5048893;28;20304;-84
2021/03/17 00:08:22;;;;;;;9.38;8.23;;;4.00;99.90;;;;;;5049661;28;20555;-84
2021/03/17 00:10:51;;;;;;;11.43;7.80;;;4.00;99.90;;;;;;5039388;28;20178;-83
2021/03/17 00:13:18;;;;;;;12.18;8.07;;;3.90;99.90;;;;;;5052578;28;20290;-83
2021/03/17 00:15:45;;;;;;;10.43;7.18;;;3.90;99.90;;;;;;5040144;28;20190;-84
2021/03/17 00:18:14;;;;;;;9.20;7.05;;;3.90;99.90;;;;;;5050882;28;20671;-84
2021/03/17 00:20:41;;;;;;;10.80;8.32;;;3.90;99.90;;;;;;5038306;28;20190;-84
2021/03/17 00:23:07;;;;;;;8.23;6.90;;;3.90;99.90;;;;;;5043070;28;20444;-84
2021/03/17 00:25:36;;;;;;;12.27;9.05;;;4.00;99.90;;;;;;5045323;28;20248;-84
2021/03/17 00:28:03;;;;;;;12.43;8.45;;;3.90;99.90;;;;;;5035877;28;20665;-83
2021/03/17 00:30:30;;;;;;;9.80;7.88;;;4.00;99.90;;;;;;5048560;28;20249;-83
2021/03/17 00:32:56;;;;;;;10.98;7.45;;;4.00;99.90;;;;;;5034066;28;20191;-84
2021/03/17 00:35:24;;;;;;;9.50;7.78;;;4.10;99.90;;;;;;5044006;28;20565;-84
2021/03/17 00:37:50;;;;;;;11.05;7.80;;;4.10;99.90;;;;;;5037214;28;20187;-83
2021/03/17 00:40:17;;;;;;;8.60;7.55;;;4.10;99.90;;;;;;5048830;28;20193;-83
2021/03/17 00:42:43;;;;;;;10.18;7.95;;;4.10;99.90;;;;;;5038230;28;20631;-84
2021/03/17 00:45:10;;;;;;;9.15;7.20;;;4.20;99.90;;;;;;5052186;28;20272;-84
2021/03/17 00:47:36;;;;;;;10.52;8.07;;;4.20;99.90;;;;;;5039241;28;20191;-84
2021/03/17 00:50:03;;;;;;;10.88;7.72;;;4.30;99.90;;;;;;5049140;28;20256;-84
2021/03/17 00:52:30;;;;;;;13.85;8.50;;;4.30;99.90;;;;;;5048276;28;20275;-84
2021/03/17 00:54:56;;;;;;;13.63;8.57;;;4.30;99.90;;;;;;5039857;28;20665;-82
2021/03/17 00:57:22;;;;;;;11.00;8.02;;;4.40;99.90;;;;;;5042473;28;20186;-80
2021/03/17 00:59:48;;;;;;;9.00;7.38;;;4.40;99.90;;;;;;5051307;28;20215;-82
2021/03/17 01:02:14;;;;;;;10.85;7.38;;;4.40;99.90;;;;;;5054046;28;20597;-82
2021/03/17 01:04:40;;;;;;;12.23;7.95;;;4.50;99.90;;;;;;5042112;28;20244;-82
2021/03/17 01:07:08;;;;;;;9.15;8.02;;;4.50;99.90;;;;;;5055818;28;20236;-82
2021/03/17 01:09:35;;;;;;;10.25;8.15;;;4.60;99.90;;;;;;5043025;28;20219;-82
2021/03/17 01:12:01;;;;;;;10.10;8.30;;;4.60;99.90;;;;;;5052348;28;20214;-82
2021/03/17 01:14:27;;;;;;;11.20;8.43;;;4.70;99.90;;;;;;5040065;28;20281;-82
2021/03/17 01:16:53;;;;;;;11.85;8.68;;;4.60;99.90;;;;;;5055907;28;20672;-82
2021/03/17 01:19:19;;;;;;;10.52;7.60;;;4.70;99.90;;;;;;5044807;28;20183;-82
2021/03/17 01:21:45;;;;;;;12.40;8.82;;;4.70;99.90;;;;;;5050382;28;20273;-82
2021/03/17 01:24:11;;;;;;;11.93;8.05;;;4.70;99.90;;;;;;5053762;28;20760;-82
2021/03/17 01:26:38;;;;;;;10.52;7.47;;;4.70;99.90;;;;;;5040762;28;20647;-82
2021/03/17 01:29:04;;;;;;;13.93;8.45;;;4.70;99.90;;;;;;5046629;28;20713;-82
2021/03/17 01:31:30;;;;;;;10.45;7.88;;;4.70;99.90;;;;;;5048276;28;20186;-82
2021/03/17 01:33:56;;;;;;;14.55;8.43;;;4.70;99.90;;;;;;5039578;28;20270;-82
2021/03/17 01:36:23;;;;;;;16.20;10.80;;;4.60;99.90;;;;;;5051987;28;20274;-82
2021/03/17 01:38:49;;;;;;;20.05;14.55;;;4.60;99.90;;;;;;5042378;28;20242;-81
2021/03/17 01:41:15;;;;;;;25.40;16.55;;;4.60;99.90;;;;;;5044862;28;20641;-81
2021/03/17 01:43:42;;;;;;;22.42;14.15;;;4.60;99.90;;;;;;5049522;28;20190;-81
2021/03/17 01:46:08;;;;;;;11.25;9.25;;;4.60;99.90;;;;;;5038507;28;20761;-82
2021/03/17 01:48:34;;;;;;;18.23;10.00;;;4.50;99.90;;;;;;5050666;28;20186;-82
2021/03/17 01:51:00;;;;;;;12.88;8.55;;;4.50;99.90;;;;;;5035207;28;20237;-82
2021/03/17 01:53:29;;;;;;;22.20;11.77;;;4.50;99.90;;;;;;5047215;28;20664;-81
2021/03/17 01:55:56;;;;;;;26.17;16.52;;;4.50;99.90;;;;;;5043728;28;20193;-82
2021/03/17 01:58:23;;;;;;;34.97;19.58;;;4.50;99.90;;;;;;5038461;28;20713;-82
2021/03/17 02:00:50;;;;;;;33.80;18.88;;;4.40;99.90;;;;;;5048393;28;20246;-82
2021/03/17 02:03:17;;;;;;;32.97;20.55;;;4.40;99.90;;;;;;5038402;28;20195;-84
2021/03/17 02:05:44;;;;;;;24.00;17.00;;;4.40;99.90;;;;;;5039058;28;20639;-82
2021/03/17 02:08:13;;;;;;;23.83;14.57;;;4.40;99.90;;;;;;5051328;28;20228;-81
2021/03/17 02:10:40;;;;;;;18.42;11.82;;;4.40;99.90;;;;;;5034565;28;20718;-81
2021/03/17 02:13:45;;;;;;;26.08;16.60;;;4.30;99.90;;;;;;5035186;28;20245;-81
2021/03/17 02:16:19;;;;;;;18.70;11.82;;;4.40;99.90;;;;;;5034374;28;20193;-81
2021/03/17 02:18:57;;;;;;;13.73;8.63;;;4.40;99.90;;;;;;5035040;28;20190;-82
2021/03/17 02:21:50;;;;;;;12.38;9.38;;;4.40;99.90;;;;;;5034984;28;20720;-81
2021/03/17 02:24:22;;;;;;;17.25;9.65;;;4.40;99.90;;;;;;5043378;28;20265;-81
2021/03/17 02:27:18;;;;;;;17.33;10.20;;;4.40;99.90;;;;;;5055140;28;20325;-81
2021/03/17 02:30:18;;;;;;;14.05;10.15;;;4.40;99.90;;;;;;5054865;28;20223;-81
2021/03/17 02:33:09;;;;;;;14.02;10.20;;;4.50;99.90;;;;;;5047037;28;20285;-82
2021/03/17 02:35:38;;;;;;;15.38;10.23;;;4.50;99.90;;;;;;5035146;28;20198;-82
2021/03/17 02:38:11;;;;;;;13.05;9.02;;;4.50;99.90;;;;;;5034664;28;20238;-82
2021/03/17 02:40:40;;;;;;;12.93;9.70;;;4.50;99.90;;;;;;5034805;28;20237;-83
2021/03/17 02:43:10;;;;;;;14.82;9.02;;;4.60;99.90;;;;;;5034379;28;20657;-82
2021/03/17 02:45:39;;;;;;;14.95;9.38;;;4.60;99.90;;;;;;5034531;28;20218;-83
2021/03/17 02:48:10;;;;;;;12.23;9.35;;;4.60;99.90;;;;;;5034440;28;20236;-83
2021/03/17 02:50:41;;;;;;;14.82;8.93;;;4.60;99.90;;;;;;5034509;28;20194;-83
2021/03/17 02:53:09;;;;;;;12.80;8.93;;;4.60;99.90;;;;;;5034105;28;20187;-83
2021/03/17 02:55:40;;;;;;;15.13;9.00;;;4.60;99.90;;;;;;5034311;28;20226;-83
2021/03/17 02:58:07;;;;;;;12.70;8.57;;;4.60;99.90;;;;;;5034119;28;20191;-82
2021/03/17 03:00:34;;;;;;;11.15;8.82;;;4.60;99.90;;;;;;5034219;28;20191;-83
2021/03/17 03:03:01;;;;;;;13.13;9.48;;;4.50;99.90;;;;;;5034214;28;20193;-84
2021/03/17 03:05:29;;;;;;;13.35;9.18;;;4.50;99.90;;;;;;5034096;28;20215;-82
2021/03/17 03:07:57;;;;;;;9.82;8.43;;;4.50;99.90;;;;;;5034008;28;20225;-83
2021/03/17 03:10:28;;;;;;;12.05;9.40;;;4.50;99.90;;;;;;5042997;28;20290;-83
2021/03/17 03:12:55;;;;;;;11.30;8.65;;;4.50;99.90;;;;;;5042333;28;20194;-82
2021/03/17 03:15:24;;;;;;;15.50;9.50;;;4.50;99.90;;;;;;5053577;28;20236;-82
2021/03/17 03:17:51;;;;;;;12.05;8.80;;;4.40;99.90;;;;;;5049244;28;20213;-82
2021/03/17 03:20:21;;;;;;;12.52;8.98;;;4.40;99.90;;;;;;5052847;28;20221;-82
2021/03/17 03:22:48;;;;;;;14.75;8.82;;;4.40;99.90;;;;;;5036611;28;20182;-82
2021/03/17 03:25:16;;;;;;;13.20;9.25;;;4.30;99.90;;;;;;5047917;28;20218;-80
2021/03/17 03:27:43;;;;;;;16.55;10.20;;;4.30;99.90;;;;;;5042586;28;20190;-83
2021/03/17 03:30:12;;;;;;;15.23;10.32;;;4.30;99.90;;;;;;5053299;28;20716;-84
2021/03/17 03:32:39;;;;;;;16.20;9.52;;;4.30;99.90;;;;;;5046653;28;20611;-83
2021/03/17 03:35:08;;;;;;;19.63;10.30;;;4.30;99.90;;;;;;5049065;28;20179;-83
2021/03/17 03:37:35;;;;;;;14.55;9.73;;;4.30;99.90;;;;;;5041354;28;20308;-85
2021/03/17 03:40:03;;;;;;;14.95;9.43;;;4.30;99.90;;;;;;5053196;28;20265;-88
2021/03/17 03:42:30;;;;;;;13.20;9.32;;;4.30;99.90;;;;;;5037453;28;20203;-86
2021/03/17 03:44:57;;;;;;;12.63;9.30;;;4.20;99.90;;;;;;5049664;28;20191;-90
2021/03/17 03:47:23;;;;;;;16.73;10.35;;;4.20;99.90;;;;;;5033353;28;20246;-86
2021/03/17 03:49:49;;;;;;;17.40;9.98;;;4.20;99.90;;;;;;5033267;28;20187;-84
2021/03/17 03:52:19;;;;;;;13.88;9.52;;;4.20;99.90;;;;;;5034478;28;20194;-82
2021/03/17 03:54:51;;;;;;;15.65;10.88;;;4.20;99.90;;;;;;5042710;28;20186;-81
2021/03/17 03:57:23;;;;;;;13.52;9.85;;;4.20;99.90;;;;;;5042998;28;20194;-82
2021/03/17 03:59:55;;;;;;;18.02;10.65;;;4.20;99.90;;;;;;5045438;28;20210;-82
2021/03/17 04:02:24;;;;;;;20.33;10.05;;;4.20;99.90;;;;;;5039527;28;20187;-82
2021/03/17 04:04:51;;;;;;;17.60;9.73;;;4.20;99.90;;;;;;5043171;28;20194;-83
2021/03/17 04:07:18;;;;;;;18.42;10.50;;;4.20;99.90;;;;;;5046656;28;20253;-89
2021/03/17 04:09:46;;;;;;;15.25;9.77;;;4.20;99.90;;;;;;5048481;28;20649;-89
2021/03/17 04:12:14;;;;;;;15.75;10.18;;;4.30;99.90;;;;;;5046355;28;20236;-82
2021/03/17 04:14:44;;;;;;;17.40;9.70;;;4.30;99.90;;;;;;5043509;28;20194;-87
2021/03/17 04:17:14;;;;;;;14.95;10.45;;;4.20;99.90;;;;;;5045369;28;20217;-81
2021/03/17 04:19:43;;;;;;;15.23;11.25;;;4.20;99.90;;;;;;5041136;28;20186;-82
2021/03/17 04:22:10;;;;;;;16.48;10.65;;;4.20;99.90;;;;;;5032922;28;20282;-82
2021/03/17 04:24:39;;;;;;;16.80;9.82;;;4.10;99.90;;;;;;5032724;28;20772;-81
2021/03/17 04:27:07;;;;;;;17.55;10.35;;;4.10;99.90;;;;;;5032856;28;20257;-82
2021/03/17 04:29:35;;;;;;;19.33;11.20;;;4.10;99.90;;;;;;5032066;28;20298;-81
2021/03/17 04:32:03;;;;;;;15.27;10.13;;;4.00;99.90;;;;;;5034465;28;20190;-83
2021/03/17 04:34:31;;;;;;;15.70;11.32;;;3.90;99.90;;;;;;5052641;28;20241;-84
2021/03/17 04:36:58;;;;;;;19.63;11.63;;;3.90;99.90;;;;;;5052734;28;20197;-83
2021/03/17 04:39:25;;;;;;;17.17;11.23;;;3.90;99.90;;;;;;5052630;28;20189;-84
2021/03/17 04:41:53;;;;;;;25.30;10.60;;;4.00;99.90;;;;;;5052515;28;20236;-84
2021/03/17 04:44:20;;;;;;;20.75;10.98;;;3.90;99.90;;;;;;5052686;28;20247;-84
2021/03/17 04:46:48;;;;;;;14.95;9.63;;;3.90;99.90;;;;;;5052706;28;20623;-81
2021/03/17 04:49:14;;;;;;;25.70;10.88;;;3.90;99.90;;;;;;5052696;28;20284;-83
2021/03/17 04:51:42;;;;;;;17.70;11.75;;;3.80;99.90;;;;;;5052566;28;20189;-83
2021/03/17 04:54:08;;;;;;;17.35;11.77;;;3.90;99.90;;;;;;5052341;28;20217;-83
2021/03/17 04:56:36;;;;;;;16.40;11.05;;;3.80;99.90;;;;;;5052432;28;20217;-83
2021/03/17 04:59:03;;;;;;;21.50;11.35;;;3.80;99.90;;;;;;5052480;28;20190;-83
2021/03/17 05:01:32;;;;;;;19.10;11.95;;;3.80;99.90;;;;;;5052600;28;20229;-81
2021/03/17 05:04:00;;;;;;;19.30;10.13;;;3.70;99.90;;;;;;5052454;28;20580;-82
2021/03/17 05:06:27;;;;;;;15.80;10.23;;;3.60;99.90;;;;;;5052372;28;20299;-82
2021/03/17 05:08:53;;;;;;;19.35;10.95;;;3.60;99.90;;;;;;5052270;28;20545;-81
2021/03/17 05:11:20;;;;;;;19.65;11.23;;;3.60;99.90;;;;;;5052013;28;20285;-82
2021/03/17 05:13:47;;;;;;;18.35;11.38;;;3.60;99.90;;;;;;5052519;28;20201;-83
2021/03/17 05:16:13;;;;;;;18.58;11.63;;;3.50;99.90;;;;;;5052371;28;20615;-83
2021/03/17 05:18:40;;;;;;;19.13;11.75;;;3.50;99.90;;;;;;5052435;28;20269;-83
2021/03/17 05:21:09;;;;;;;18.27;11.13;;;3.60;99.90;;;;;;5052170;28;20194;-83
2021/03/17 05:23:38;;;;;;;19.50;10.80;;;3.60;99.90;;;;;;5051387;28;20657;-84
2021/03/17 05:26:05;;;;;;;19.27;11.02;;;3.70;99.90;;;;;;5052282;28;20244;-83
2021/03/17 05:28:33;;;;;;;20.60;11.63;;;3.70;99.90;;;;;;5052335;28;20281;-83
2021/03/17 05:31:00;;;;;;;17.95;11.10;;;3.70;99.90;;;;;;5052163;28;20232;-82
2021/03/17 05:33:28;;;;;;;15.25;10.65;;;3.70;99.90;;;;;;5038520;28;20217;-82
2021/03/17 05:35:55;;;;;;;20.73;12.18;;;3.80;99.90;;;;;;5031970;28;20535;-82
2021/03/17 05:38:21;;;;;;;28.52;12.77;;;3.80;99.90;;;;;;5032167;28;20661;-81
2021/03/17 05:40:47;;;;;;;18.38;10.98;;;3.90;99.90;;;;;;5031959;28;20676;-81
2021/03/17 05:43:14;;;;;;;20.38;10.68;;;3.90;99.90;;;;;;5032258;28;20190;-81
2021/03/17 05:45:40;;;;;;;30.40;11.02;;;3.80;99.90;;;;;;5035278;28;20253;-81
2021/03/17 05:48:08;;;;;;;15.98;10.55;;;3.80;99.90;;;;;;5035772;28;20190;-81
2021/03/17 05:50:35;;;;;;;16.73;10.68;;;3.80;99.90;;;;;;5035416;28;20240;-83
2021/03/17 05:53:01;;;;;;;19.90;12.73;;;3.80;99.90;;;;;;5035607;28;20269;-83
2021/03/17 05:55:28;;;;;;;19.35;10.90;;;3.80;99.90;;;;;;5035480;28;20202;-83
2021/03/17 05:57:57;;;;;;;15.60;10.93;;;3.80;99.90;;;;;;5035534;28;20245;-82
2021/03/17 06:00:25;;;;;;;16.70;11.43;;;3.70;99.90;;;;;;5035383;28;20205;-82
2021/03/17 06:02:52;;;;;;;18.83;11.48;;;3.70;99.90;;;;;;5035332;28;20241;-83
2021/03/17 06:05:20;;;;;;;16.95;11.32;;;3.80;99.90;;;;;;5034911;28;20222;-83
2021/03/17 06:07:54;;;;;;;18.85;11.35;;;3.80;99.90;;;;;;5035405;28;20250;-84
2021/03/17 06:10:22;;;;;;;16.90;10.82;;;3.90;99.90;;;;;;5066096;28;20193;-84
2021/03/17 06:12:50;;;;;;;21.52;12.85;;;3.90;99.90;;;;;;5075258;28;20224;-83
2021/03/17 06:15:21;;;;;;;13.45;9.60;;;4.00;99.90;;;;;;5074966;28;20683;-82
2021/03/17 06:17:51;;;;;;;19.88;11.55;;;4.10;99.90;;;;;;5074927;28;20292;-82
2021/03/17 06:20:18;;;;;;;16.17;9.82;;;4.10;99.90;;;;;;5075023;28;20228;-82
2021/03/17 06:22:44;;;;;;;17.48;9.98;;;4.10;99.90;;;;;;5074846;28;20727;-84
2021/03/17 06:25:11;;;;;;;14.98;10.55;;;4.20;99.90;;;;;;5074700;28;20252;-84
2021/03/17 06:27:38;;;;;;;19.83;11.77;;;4.20;99.90;;;;;;5074854;28;20267;-84
2021/03/17 06:30:05;;;;;;;16.35;10.90;;;4.30;99.90;;;;;;5074641;28;20185;-82
2021/03/17 06:32:35;;;;;;;14.02;9.85;;;4.30;99.90;;;;;;5068415;28;20676;-82
2021/03/17 06:35:15;;;;;;;18.48;10.32;;;4.40;99.90;;;;;;5054654;28;20665;-82
2021/03/17 06:37:41;;;;;;;13.75;10.38;;;4.50;99.90;;;;;;5054727;28;20288;-83
2021/03/17 06:40:21;;;;;;;14.65;9.95;;;4.50;99.90;;;;;;5054574;28;20259;-83
2021/03/17 06:42:47;;;;;;;16.20;11.20;;;4.60;99.90;;;;;;5054572;28;20193;-84
2021/03/17 06:45:27;;;;;;;25.33;12.02;;;4.70;99.90;;;;;;5054242;28;20641;-84
2021/03/17 06:47:53;;;;;;;18.33;11.00;;;4.70;99.90;;;;;;5054497;28;20636;-82
2021/03/17 06:50:28;;;;;;;18.38;10.50;;;4.70;99.90;;;;;;5054393;28;20273;-82
2021/03/17 06:52:54;;;;;;;18.20;11.80;;;4.70;99.90;;;;;;5054372;28;20193;-83
2021/03/17 06:55:22;;;;;;;15.00;11.65;;;4.80;99.90;;;;;;5054074;28;20233;-84
2021/03/17 06:57:49;;;;;;;16.30;11.35;;;4.80;99.90;;;;;;5054363;28;20234;-83
2021/03/17 07:00:34;;;;;;;16.02;10.35;;;4.90;99.90;;;;;;5054268;28;20190;-84
2021/03/17 07:03:03;;;;;;;15.23;11.43;;;5.00;99.90;;;;;;5054203;28;20221;-84
2021/03/17 07:05:38;;;;;;;15.27;10.98;;;5.10;99.90;;;;;;5054064;28;20260;-84
2021/03/17 07:08:06;;;;;;;13.73;11.00;;;5.20;99.90;;;;;;5054139;28;20189;-84
2021/03/17 07:10:36;;;;;;;16.50;10.27;;;5.30;99.90;;;;;;5053942;28;20208;-84
2021/03/17 07:13:04;;;;;;;16.90;9.23;;;5.40;99.90;;;;;;5054027;28;20724;-83
2021/03/17 07:15:31;;;;;;;18.30;9.25;;;5.40;99.90;;;;;;5053816;28;20253;-83
2021/03/17 07:18:17;;;;;;;14.38;10.20;;;5.60;99.90;;;;;;5054027;28;20336;-83
2021/03/17 07:20:46;;;;;;;13.77;9.75;;;5.70;99.90;;;;;;5053561;28;20187;-83
2021/03/17 07:23:33;;;;;;;19.67;9.68;;;5.90;99.90;;;;;;5053663;28;20311;-83
2021/03/17 07:26:08;;;;;;;13.55;9.93;;;6.10;99.90;;;;;;5053542;28;20209;-83
2021/03/17 07:29:00;;;;;;;12.65;9.73;;;6.40;99.90;;;;;;5053533;28;20564;-83
2021/03/17 07:31:28;;;;;;;13.90;8.60;;;6.60;99.90;;;;;;5053611;28;20190;-84
2021/03/17 07:33:55;;;;;;;14.30;9.90;;;6.70;99.90;;;;;;5036260;28;20190;-83
2021/03/17 07:36:36;;;;;;;15.90;9.73;;;6.80;99.90;;;;;;5033537;28;20269;-84
2021/03/17 07:39:07;;;;;;;12.55;9.20;;;7.00;99.90;;;;;;5033449;28;20190;-82
2021/03/17 07:41:34;;;;;;;13.18;9.52;;;7.00;99.90;;;;;;5033486;28;20245;-82
2021/03/17 07:44:04;;;;;;;16.50;10.45;;;7.10;99.90;;;;;;5033667;28;20194;-82
2021/03/17 07:46:31;;;;;;;14.05;9.35;;;7.20;99.90;;;;;;5032990;28;20213;-82
2021/03/17 07:48:58;;;;;;;15.02;9.95;;;7.30;99.90;;;;;;5033260;28;20198;-82
2021/03/17 07:51:25;;;;;;;10.88;8.63;;;7.40;99.90;;;;;;5033305;28;20233;-81
2021/03/17 07:53:55;;;;;;;17.52;9.30;;;7.40;99.90;;;;;;5033243;28;20684;-82
2021/03/17 07:56:22;;;;;;;16.00;8.70;;;7.40;99.90;;;;;;5033259;28;20207;-82
2021/03/17 07:58:50;;;;;;;13.73;9.75;;;7.30;99.90;;;;;;5033269;28;20665;-82
2021/03/17 08:01:17;;;;;;;10.85;8.80;;;7.30;99.90;;;;;;5033164;28;20645;-83
2021/03/17 08:03:45;;;;;;;12.30;8.52;;;7.30;99.90;;;;;;5033223;28;20195;-82
2021/03/17 08:06:14;;;;;;;12.20;9.30;;;7.30;99.90;;;;;;5032608;28;20264;-82
2021/03/17 08:08:41;;;;;;;14.57;9.93;;;7.20;99.90;;;;;;5032728;28;20650;-82
2021/03/17 08:11:10;;;;;;;12.57;9.25;;;7.10;99.90;;;;;;5048905;28;20198;-84
2021/03/17 08:13:39;;;;;;;12.73;9.43;;;6.90;99.90;;;;;;5052837;28;20656;-82
2021/03/17 08:16:06;;;;;;;12.52;10.00;;;6.80;99.90;;;;;;5036260;28;20237;-82
2021/03/17 08:18:50;;;;;;;14.40;10.13;;;6.80;99.90;;;;;;5032880;28;20217;-82
2021/03/17 08:21:46;;;;;;;13.05;9.70;;;6.80;99.90;;;;;;5032917;28;20197;-83
2021/03/17 08:24:40;;;;;;;13.23;9.32;;;6.60;99.90;;;;;;5032741;28;20254;-83
2021/03/17 08:27:25;;;;;;;12.70;9.00;;;6.30;99.90;;;;;;5032530;28;20268;-83
2021/03/17 08:30:04;;;;;;;12.13;8.27;;;6.20;99.90;;;;;;5032930;28;20257;-83
2021/03/17 08:32:55;;;;;;;12.52;8.77;;;6.20;99.90;;;;;;5038304;28;20719;-82
2021/03/17 08:35:22;;;;;;;14.02;10.77;;;6.10;99.90;;;;;;5052531;28;20223;-82
2021/03/17 08:37:53;;;;;;;14.90;9.77;;;6.10;99.90;;;;;;5052528;28;20201;-84
2021/03/17 08:40:45;;;;;;;10.50;8.30;;;6.30;99.90;;;;;;5052382;28;20240;-84
2021/03/17 08:43:42;;;;;;;11.95;9.82;;;6.30;99.90;;;;;;5052474;28;20284;-83
2021/03/17 08:46:10;;;;;;;17.23;9.30;;;6.40;99.90;;;;;;5045274;28;20264;-85
2021/03/17 08:48:56;;;;;;;12.05;9.27;;;6.60;99.90;;;;;;5050272;28;20304;-84
2021/03/17 08:52:07;;;;;;;13.52;9.43;;;6.70;99.90;;;;;;5052500;28;20229;-85
2021/03/17 08:55:04;;;;;;;17.20;9.65;;;6.90;99.90;;;;;;5052689;28;20201;-79
2021/03/17 08:57:50;;;;;;;17.40;9.90;;;7.10;99.90;;;;;;5052533;28;20359;-78
2021/03/17 09:00:41;;;;;;;13.40;9.18;;;7.20;99.90;;;;;;5045367;28;20202;-78
2021/03/17 09:03:07;;;;;;;14.45;8.82;;;7.20;99.90;;;;;;5044449;28;20214;-78
2021/03/17 09:05:33;;;;;;;12.95;9.38;;;7.30;99.90;;;;;;5043109;28;20274;-78
2021/03/17 09:08:02;;;;;;;11.93;8.93;;;7.30;99.90;;;;;;5038830;28;20217;-78
2021/03/17 09:10:47;;;;;;;11.97;9.20;;;7.30;99.90;;;;;;5039908;28;20187;-79
2021/03/17 09:13:15;;;;;;;12.50;9.10;;;7.30;99.90;;;;;;5033320;28;20449;-78
2021/03/17 09:15:47;;;;;;;13.77;8.77;;;7.40;99.90;;;;;;5046387;28;20491;-78
2021/03/17 09:18:14;;;;;;;11.30;8.85;;;7.40;99.90;;;;;;5041559;28;20277;-78
2021/03/17 09:20:43;;;;;;;12.07;9.48;;;7.30;99.90;;;;;;5055118;28;20569;-78
2021/03/17 09:23:15;;;;;;;9.53;8.30;;;7.20;99.90;;;;;;5038418;28;20217;-78
2021/03/17 09:25:47;;;;;;;12.55;8.98;;;7.20;99.90;;;;;;5050130;28;20457;-78
2021/03/17 09:28:19;;;;;;;14.43;8.70;;;7.20;99.90;;;;;;5045275;28;20182;-78
2021/03/17 09:30:49;;;;;;;11.00;9.48;;;7.10;99.90;;;;;;5041181;28;20198;-78
2021/03/17 09:33:17;;;;;;;13.70;9.45;;;6.80;99.90;;;;;;5043093;28;20684;-78
2021/03/17 09:35:48;;;;;;;11.50;8.50;;;6.80;99.90;;;;;;5049336;28;20183;-78
2021/03/17 09:38:16;;;;;;;12.80;9.20;;;7.00;99.90;;;;;;5045397;28;20448;-78
2021/03/17 09:40:49;;;;;;;10.95;8.68;;;7.20;99.90;;;;;;5055220;28;20217;-78
2021/03/17 09:43:28;;;;;;;11.75;8.80;;;7.30;99.90;;;;;;5038740;28;20225;-78
2021/03/17 09:45:55;;;;;;;11.90;8.40;;;7.40;99.90;;;;;;5048782;28;20190;-78
2021/03/17 09:48:22;;;;;;;12.90;8.65;;;7.40;99.90;;;;;;5052404;28;20224;-79
2021/03/17 09:50:56;;;;;;;14.38;9.10;;;7.50;99.90;;;;;;5047231;28;20251;-79
2021/03/17 09:53:22;;;;;;;12.38;8.52;;;7.60;99.90;;;;;;5047284;28;20214;-79
2021/03/17 09:55:48;;;;;;;14.40;8.93;;;7.80;99.90;;;;;;5050173;28;20277;-79
2021/03/17 09:58:14;;;;;;;10.38;8.20;;;8.00;99.90;;;;;;5047011;28;20479;-79
2021/03/17 10:00:41;;;;;;;10.73;8.40;;;8.10;99.90;;;;;;5040899;28;20337;-79
2021/03/17 10:03:12;;;;;;;13.18;8.60;;;8.00;99.90;;;;;;5037536;28;20194;-79
2021/03/17 10:05:39;;;;;;;10.80;8.80;;;8.00;99.90;;;;;;5050165;28;20244;-79
2021/03/17 10:08:05;;;;;;;13.13;7.78;;;7.80;99.90;;;;;;5043382;28;20479;-79
2021/03/17 10:10:32;;;;;;;10.83;8.90;;;7.70;99.90;;;;;;5042345;28;20273;-79
2021/03/17 10:12:58;;;;;;;11.50;9.02;;;7.70;99.90;;;;;;5050515;28;20477;-78
2021/03/17 10:15:26;;;;;;;15.30;8.48;;;7.80;99.90;;;;;;5037779;28;20741;-79
2021/03/17 10:17:54;;;;;;;12.07;8.60;;;7.80;99.90;;;;;;5047548;28;20187;-79
2021/03/17 10:20:23;;;;;;;15.30;9.25;;;8.00;99.90;;;;;;5045398;28;20452;-79
2021/03/17 10:22:51;;;;;;;10.50;9.30;;;8.20;99.90;;;;;;5054464;28;20277;-79
2021/03/17 10:25:19;;;;;;;12.80;9.25;;;8.40;99.90;;;;;;5037324;28;20531;-79
2021/03/17 10:27:47;;;;;;;12.87;8.20;;;8.40;99.90;;;;;;5048251;28;20226;-79
2021/03/17 10:30:16;;;;;;;11.43;8.67;;;8.50;99.90;;;;;;5043682;28;20448;-79
2021/03/17 10:32:44;;;;;;;11.43;8.13;;;8.40;99.90;;;;;;5047959;28;20448;-79
2021/03/17 10:35:13;;;;;;;10.13;8.15;;;8.30;99.90;;;;;;5037675;28;20453;-80
2021/03/17 10:37:40;;;;;;;10.05;8.32;;;8.30;99.90;;;;;;5048861;28;20210;-79
2021/03/17 10:40:10;;;;;;;11.30;8.38;;;7.90;99.90;;;;;;5039614;28;20220;-78
2021/03/17 10:42:43;;;;;;;10.57;8.13;;;7.60;99.90;;;;;;5036446;28;20187;-79
2021/03/17 10:45:11;;;;;;;10.30;7.30;;;7.40;99.90;;;;;;5049620;28;20210;-79
2021/03/17 10:47:39;;;;;;;9.95;7.32;;;7.20;99.90;;;;;;5038399;28;20264;-79
2021/03/17 10:50:07;;;;;;;9.32;7.15;;;7.10;99.90;;;;;;5044974;28;20214;-79
2021/03/17 10:52:35;;;;;;;12.45;8.93;;;7.10;99.90;;;;;;5046521;28;20197;-79
2021/03/17 10:55:10;;;;;;;9.88;7.25;;;7.00;99.90;;;;;;5053986;28;20190;-79
2021/03/17 10:57:37;;;;;;;9.38;7.25;;;6.90;99.90;;;;;;5039050;28;20687;-79
2021/03/17 11:00:18;;;;;;;8.18;7.20;;;6.70;99.90;;;;;;5045689;28;20191;-79
2021/03/17 11:02:44;;;;;;;10.32;7.32;;;6.70;99.90;;;;;;5048089;28;20602;-79
2021/03/17 11:05:28;;;;;;;11.45;8.10;;;6.80;99.90;;;;;;5050643;28;20276;-79
2021/03/17 11:08:09;;;;;;;9.93;7.63;;;6.90;99.90;;;;;;5042547;28;20265;-79
2021/03/17 11:10:57;;;;;;;11.60;8.13;;;7.00;99.90;;;;;;5054204;28;20193;-79
2021/03/17 11:13:29;;;;;;;9.35;6.90;;;7.30;99.90;;;;;;5036882;28;20240;-79
2021/03/17 11:15:57;;;;;;;9.10;7.65;;;7.50;99.90;;;;;;5046169;28;20236;-79
2021/03/17 11:18:25;;;;;;;8.15;7.00;;;7.70;99.90;;;;;;5045025;28;20530;-79
2021/03/17 11:20:53;;;;;;;7.22;6.18;;;7.80;99.90;;;;;;5038532;28;20278;-79
2021/03/17 11:23:21;;;;;;;6.32;5.72;;;7.80;99.90;;;;;;5047790;28;20281;-78
2021/03/17 11:25:50;;;;;;;8.87;6.17;;;7.70;99.90;;;;;;5037536;28;20250;-78
2021/03/17 11:28:18;;;;;;;6.38;4.97;;;7.80;99.90;;;;;;5037080;28;20494;-78
2021/03/17 11:30:47;;;;;;;5.95;5.15;;;8.10;99.90;;;;;;5041600;28;20243;-78
2021/03/17 11:33:15;;;;;;;6.10;5.03;;;8.10;99.90;;;;;;5040221;28;20198;-78
2021/03/17 11:35:42;;;;;;;7.43;5.85;;;8.20;99.90;;;;;;5037567;28;20481;-78
2021/03/17 11:38:09;;;;;;;8.50;6.40;;;8.00;99.90;;;;;;5039805;28;20190;-78
2021/03/17 11:40:35;;;;;;;7.20;5.80;;;8.00;99.90;;;;;;5045848;28;20480;-78
2021/03/17 11:43:07;;;;;;;7.77;5.30;;;7.90;99.90;;;;;;5036076;28;20540;-78
2021/03/17 11:45:33;;;;;;;8.93;6.20;;;7.80;99.90;;;;;;5037164;28;20455;-78
2021/03/17 11:47:59;;;;;;;10.63;6.50;;;7.70;99.90;;;;;;5044915;28;20571;-77
2021/03/17 11:50:26;;;;;;;9.80;7.15;;;7.60;99.90;;;;;;5044464;28;20680;-78
2021/03/17 11:52:52;;;;;;;10.25;6.70;;;7.50;99.90;;;;;;5040133;28;20230;-78
2021/03/17 11:55:19;;;;;;;8.87;7.43;;;7.40;99.90;;;;;;5049290;28;20189;-78
2021/03/17 11:57:45;;;;;;;9.13;6.73;;;7.40;99.90;;;;;;5038959;28;20480;-78
2021/03/17 12:00:14;;;;;;;8.57;6.95;;;7.30;99.90;;;;;;5043414;28;20452;-78
2021/03/17 12:02:40;;;;;;;8.25;6.47;;;7.30;99.90;;;;;;5046252;28;20186;-78
2021/03/17 12:05:08;;;;;;;8.00;6.23;;;7.60;99.90;;;;;;5052166;28;20186;-77
2021/03/17 12:07:35;;;;;;;7.28;6.50;;;7.90;99.90;;;;;;5037048;28;20472;-77
2021/03/17 12:10:01;;;;;;;12.40;7.60;;;8.20;99.90;;;;;;5044546;28;20273;-78
2021/03/17 12:12:27;;;;;;;9.83;6.33;;;8.60;99.90;;;;;;5044369;28;20552;-78
2021/03/17 12:14:53;;;;;;;6.90;5.83;;;8.80;99.90;;;;;;5052846;28;20444;-78
2021/03/17 12:17:20;;;;;;;9.13;6.40;;;9.00;99.90;;;;;;5036337;28;20456;-77
2021/03/17 12:19:46;;;;;;;9.13;6.30;;;9.00;99.90;;;;;;5046690;28;20477;-78
2021/03/17 12:22:12;;;;;;;7.73;6.40;;;8.90;99.90;;;;;;5042301;28;21125;-78
2021/03/17 12:24:38;;;;;;;6.40;5.50;;;9.10;99.90;;;;;;5052420;28;20472;-78
2021/03/17 12:27:05;;;;;;;6.20;5.27;;;9.20;99.90;;;;;;5036167;28;20539;-78
2021/03/17 12:29:31;;;;;;;5.23;4.73;;;9.00;99.90;;;;;;5048486;28;20540;-77
2021/03/17 12:31:57;;;;;;;6.63;5.40;;;9.10;99.90;;;;;;5040287;28;20484;-78
2021/03/17 12:34:24;;;;;;;6.73;5.33;;;9.20;99.90;;;;;;5041350;28;20544;-78
2021/03/17 12:36:51;;;;;;;6.33;5.37;;;9.40;99.90;;;;;;5047499;28;20460;-78
2021/03/17 12:39:17;;;;;;;4.90;4.50;;;9.60;99.90;;;;;;5036003;28;20507;-78
2021/03/17 12:41:43;;;;;;;6.33;4.67;;;9.80;99.90;;;;;;5046898;28;20449;-78
2021/03/17 12:44:09;;;;;;;6.27;5.23;;;9.90;99.90;;;;;;5042075;28;20490;-78
2021/03/17 12:46:35;;;;;;;5.80;4.50;;;9.90;99.90;;;;;;5052345;28;20551;-78
2021/03/17 12:49:02;;;;;;;6.87;5.23;;;9.70;99.90;;;;;;5035925;28;20456;-78
2021/03/17 12:51:29;;;;;;;6.23;4.53;;;9.30;99.90;;;;;;5052236;28;20444;-78
2021/03/17 12:53:55;;;;;;;6.07;4.50;;;9.00;99.90;;;;;;5047357;28;20936;-77
2021/03/17 12:56:21;;;;;;;7.67;4.67;;;8.90;99.90;;;;;;5047416;28;20452;-78
2021/03/17 12:58:47;;;;;;;6.23;4.00;;;9.00;99.90;;;;;;5041974;28;20499;-78